createdAt,value
2018-06-15T00:00:40.881Z,37.18
2018-06-15T00:01:40.626Z,37.1
2018-06-15T00:02:40.932Z,37.37
2018-06-15T00:03:40.947Z,37.01
2018-06-15T00:04:40.965Z,37.58
2018-06-15T00:05:41.006Z,38.04
2018-06-15T00:06:41.006Z,37.76
2018-06-15T00:07:41.055Z,37.95
2018-06-15T00:08:40.793Z,37.95
2018-06-15T00:09:41.080Z,37.85
2018-06-15T00:10:41.119Z,37.46
2018-06-15T00:11:40.868Z,37.76
2018-06-15T00:12:41.160Z,37.76
2018-06-15T00:13:40.917Z,37.95
2018-06-15T00:14:41.219Z,38.04
2018-06-15T00:15:40.968Z,38.24
2018-06-15T00:16:40.986Z,38.24
2018-06-15T00:17:41.267Z,38.33
2018-06-15T00:18:41.292Z,38.24
2018-06-15T00:19:41.337Z,38.24
2018-06-15T00:20:41.085Z,38.33
2018-06-15T00:21:41.099Z,38.24
2018-06-15T00:22:41.412Z,38.62
2018-06-15T00:23:41.421Z,38.53
2018-06-15T00:24:41.164Z,38.53
2018-06-15T00:25:41.462Z,38.33
2018-06-15T00:26:41.232Z,38.33
2018-06-15T00:27:41.516Z,38.43
2018-06-15T00:28:41.270Z,38.33
2018-06-15T00:29:41.550Z,38.62
2018-06-15T00:30:41.578Z,38.62
2018-06-15T00:31:41.619Z,38.62
2018-06-15T00:32:41.365Z,38.24
2018-06-15T00:33:41.664Z,38.72
2018-06-15T00:34:41.667Z,38.33
2018-06-15T00:35:41.435Z,38.43
2018-06-15T00:36:41.718Z,38.53
2018-06-15T00:37:41.734Z,38.72
2018-06-15T00:38:41.774Z,39.01
2018-06-15T00:39:41.797Z,38.72
2018-06-15T00:40:41.819Z,38.79
2018-06-15T00:41:41.825Z,38.7
2018-06-15T00:42:41.855Z,38.72
2018-06-15T00:43:41.884Z,38.89
2018-06-15T00:44:41.648Z,38.79
2018-06-15T00:45:41.927Z,38.7
2018-06-15T00:46:41.947Z,38.89
2018-06-15T00:47:41.988Z,39.09
2018-06-15T00:48:41.990Z,39.09
2018-06-15T00:49:42.032Z,38.99
2018-06-15T00:50:41.780Z,39.09
2018-06-15T00:51:41.805Z,39.18
2018-06-15T00:52:41.823Z,39.09
2018-06-15T00:53:42.107Z,38.99
2018-06-15T00:54:42.129Z,39.37
2018-06-15T00:55:42.154Z,39.18
2018-06-15T00:56:41.910Z,39.47
2018-06-15T00:57:42.199Z,39.47
2018-06-15T00:58:42.234Z,39.37
2018-06-15T00:59:41.976Z,39.56
2018-06-15T01:00:42.267Z,39.37
2018-06-15T01:01:42.286Z,39.56
2018-06-15T01:02:42.315Z,39.66
2018-06-15T01:03:42.340Z,39.95
2018-06-15T01:04:42.534Z,39.66
2018-06-15T01:05:42.116Z,39.95
2018-06-15T01:06:42.428Z,39.47
2018-06-15T01:07:42.452Z,39.76
2018-06-15T01:08:42.196Z,39.86
2018-06-15T01:09:42.497Z,39.86
2018-06-15T01:10:42.237Z,40.05
2018-06-15T01:11:42.268Z,39.95
2018-06-15T01:12:42.544Z,40.14
2018-06-15T01:13:42.303Z,40.34
2018-06-15T01:14:42.653Z,40.43
2018-06-15T01:15:42.354Z,39.95
2018-06-15T01:16:42.660Z,40.22
2018-06-15T01:17:42.398Z,39.95
2018-06-15T01:18:42.426Z,39.95
2018-06-15T01:19:42.710Z,40.03
2018-06-15T01:20:42.936Z,39.95
2018-06-15T01:21:42.786Z,40.03
2018-06-15T01:22:42.797Z,40.05
2018-06-15T01:23:42.804Z,40.22
2018-06-15T01:24:42.820Z,40.05
2018-06-15T01:25:42.846Z,40.12
2018-06-15T01:26:42.604Z,40.05
2018-06-15T01:27:42.895Z,40.31
2018-06-15T01:28:42.640Z,40.81
2018-06-15T01:29:43.004Z,40.7
2018-06-15T01:30:42.952Z,40.51
2018-06-15T01:31:42.997Z,40.61
2018-06-15T01:32:42.998Z,40.41
2018-06-15T01:33:42.754Z,40.51
2018-06-15T01:34:43.070Z,40.51
2018-06-15T01:35:43.097Z,40.41
2018-06-15T01:36:43.093Z,40.41
2018-06-15T01:37:43.124Z,40.51
2018-06-15T01:38:43.152Z,40.61
2018-06-15T01:39:43.206Z,40.51
2018-06-15T01:40:43.184Z,40.61
2018-06-15T01:41:43.205Z,40.41
2018-06-15T01:42:43.242Z,40.61
2018-06-15T01:43:43.274Z,40.51
2018-06-15T01:44:43.017Z,40.89
2018-06-15T01:45:43.317Z,40.99
2018-06-15T01:46:43.069Z,40.7
2018-06-15T01:47:43.345Z,40.89
2018-06-15T01:48:43.385Z,40.99
2018-06-15T01:49:43.408Z,40.89
2018-06-15T01:50:43.421Z,40.99
2018-06-15T01:51:43.446Z,40.99
2018-06-15T01:52:43.482Z,40.99
2018-06-15T01:53:43.505Z,41.08
2018-06-15T01:54:43.523Z,41.08
2018-06-15T01:55:43.542Z,40.8
2018-06-15T01:56:43.563Z,40.99
2018-06-15T01:57:43.579Z,41.18
2018-06-15T01:58:43.593Z,41.18
2018-06-15T01:59:43.638Z,40.89
2018-06-15T02:00:43.633Z,41.28
2018-06-15T02:01:43.672Z,40.8
2018-06-15T02:02:43.429Z,41.18
2018-06-15T02:03:43.718Z,41.18
2018-06-15T02:04:43.735Z,41.28
2018-06-15T02:05:43.762Z,41.08
2018-06-15T02:06:43.783Z,41.28
2018-06-15T02:07:43.876Z,41.18
2018-06-15T02:08:43.822Z,41.56
2018-06-15T02:09:43.861Z,41.08
2018-06-15T02:10:43.867Z,41.18
2018-06-15T02:11:43.902Z,41.28
2018-06-15T02:12:43.673Z,41.28
2018-06-15T02:13:43.668Z,41.28
2018-06-15T02:14:43.687Z,41.08
2018-06-15T02:15:43.997Z,41.08
2018-06-15T02:16:43.755Z,41.55
2018-06-15T02:17:43.761Z,41.55
2018-06-15T02:18:44.053Z,41.64
2018-06-15T02:19:44.088Z,41.83
2018-06-15T02:20:44.111Z,41.74
2018-06-15T02:21:44.119Z,41.64
2018-06-15T02:22:44.153Z,41.76
2018-06-15T02:23:43.912Z,41.83
2018-06-15T02:24:44.192Z,41.86
2018-06-15T02:25:44.214Z,41.83
2018-06-15T02:26:44.232Z,41.66
2018-06-15T02:27:44.264Z,41.93
2018-06-15T02:28:44.266Z,42.12
2018-06-15T02:29:44.310Z,42.12
2018-06-15T02:30:44.052Z,42.32
2018-06-15T02:31:44.338Z,42.22
2018-06-15T02:34:29.596Z,42.12
2018-06-15T02:35:29.616Z,42.41
2018-06-15T02:36:29.649Z,42.22
2018-06-15T02:37:29.692Z,42.41
2018-06-15T02:38:29.696Z,42.12
2018-06-15T02:39:29.723Z,42.12
2018-06-15T02:40:29.741Z,42.12
2018-06-15T02:41:29.751Z,42.5
2018-06-15T02:42:29.770Z,42.6
2018-06-15T02:43:29.811Z,42.6
2018-06-15T02:44:29.548Z,42.41
2018-06-15T02:45:30.002Z,42.5
2018-06-15T02:46:29.863Z,42.41
2018-06-15T02:47:29.628Z,42.5
2018-06-15T02:48:29.908Z,42.41
2018-06-15T02:49:29.948Z,42.5
2018-06-15T02:50:29.969Z,42.41
2018-06-15T02:51:29.708Z,42.22
2018-06-15T02:52:30.013Z,43.08
2018-06-15T02:53:29.765Z,42.7
2018-06-15T02:54:30.078Z,42.32
2018-06-15T02:55:30.058Z,42.6
2018-06-15T02:56:30.104Z,42.99
2018-06-15T02:57:29.837Z,42.89
2018-06-15T02:58:30.131Z,42.89
2018-06-15T02:59:30.177Z,42.8
2018-06-15T03:00:29.917Z,42.7
2018-06-15T03:01:29.935Z,42.7
2018-06-15T03:02:29.953Z,42.8
2018-06-15T03:03:29.974Z,42.7
2018-06-15T03:04:29.993Z,42.7
2018-06-15T03:05:30.031Z,42.8
2018-06-15T03:06:30.313Z,42.8
2018-06-15T03:07:30.072Z,42.8
2018-06-15T03:08:30.354Z,42.7
2018-06-15T03:09:30.642Z,42.8
2018-06-15T03:10:30.409Z,42.89
2018-06-15T03:11:30.472Z,42.89
2018-06-15T03:12:30.188Z,42.99
2018-06-15T03:13:30.499Z,42.89
2018-06-15T03:14:30.484Z,43.28
2018-06-15T03:15:30.515Z,43.28
2018-06-15T03:16:30.532Z,43.08
2018-06-15T03:17:30.297Z,43.45
2018-06-15T03:18:30.602Z,43.57
2018-06-15T03:19:30.594Z,43.26
2018-06-15T03:20:30.368Z,42.99
2018-06-15T03:21:30.664Z,43.57
2018-06-15T03:22:30.663Z,43.47
2018-06-15T03:23:30.683Z,43.07
2018-06-15T03:24:30.712Z,43.37
2018-06-15T03:25:30.735Z,43.47
2018-06-15T03:26:30.495Z,43.47
2018-06-15T03:27:30.803Z,42.99
2018-06-15T03:28:30.541Z,43.66
2018-06-15T03:29:30.820Z,43.47
2018-06-15T03:30:30.848Z,43.47
2018-06-15T03:31:30.864Z,43.16
2018-06-15T03:32:30.619Z,43.45
2018-06-15T03:33:30.641Z,43.35
2018-06-15T03:34:30.946Z,43.26
2018-06-15T03:35:30.967Z,43.26
2018-06-15T03:36:30.998Z,43.54
2018-06-15T03:37:31.031Z,43.45
2018-06-15T03:38:31.034Z,43.45
2018-06-15T03:39:31.060Z,43.84
2018-06-15T03:40:30.810Z,43.76
2018-06-15T03:41:31.089Z,43.84
2018-06-15T03:42:31.111Z,43.74
2018-06-15T03:43:31.125Z,43.84
2018-06-15T03:44:30.892Z,43.93
2018-06-15T03:45:30.904Z,43.64
2018-06-15T03:46:31.210Z,43.93
2018-06-15T03:47:31.221Z,44.12
2018-06-15T03:48:31.248Z,43.74
2018-06-15T03:49:30.995Z,44.12
2018-06-15T03:50:31.018Z,44.12
2018-06-15T03:51:31.085Z,44.22
2018-06-15T03:52:31.340Z,44.12
2018-06-15T03:53:31.352Z,44.22
2018-06-15T03:54:31.376Z,44.51
2018-06-15T03:55:31.125Z,44.22
2018-06-15T03:56:31.441Z,44.12
2018-06-15T03:57:31.439Z,44.12
2018-06-15T03:58:31.467Z,44.31
2018-06-15T03:59:31.486Z,44.22
2018-06-15T04:00:31.529Z,44.02
2018-06-15T04:01:31.274Z,44.22
2018-06-15T04:02:31.282Z,43.93
2018-06-15T04:03:31.586Z,44.02
2018-06-15T04:04:31.606Z,44.22
2018-06-15T04:05:31.622Z,44.31
2018-06-15T04:06:31.641Z,44.41
2018-06-15T04:07:31.690Z,44.41
2018-06-15T04:08:31.684Z,44.51
2018-06-15T04:09:31.727Z,44.41
2018-06-15T04:10:31.751Z,44.51
2018-06-15T04:11:31.759Z,44.7
2018-06-15T04:12:31.792Z,44.51
2018-06-15T04:13:31.816Z,44.79
2018-06-15T04:14:31.838Z,44.89
2018-06-15T04:15:31.844Z,44.79
2018-06-15T04:16:31.609Z,44.51
2018-06-15T04:17:31.895Z,44.6
2018-06-15T04:18:31.917Z,44.89
2018-06-15T04:19:31.945Z,44.99
2018-06-15T04:20:31.681Z,44.99
2018-06-15T04:21:31.717Z,44.79
2018-06-15T04:22:31.987Z,44.89
2018-06-15T04:23:32.036Z,44.79
2018-06-15T04:24:32.032Z,45.18
2018-06-15T04:25:31.796Z,44.89
2018-06-15T04:26:31.812Z,44.79
2018-06-15T04:27:32.116Z,44.79
2018-06-15T04:28:31.872Z,45.01
2018-06-15T04:29:31.889Z,44.89
2018-06-15T04:30:32.175Z,45.18
2018-06-15T04:31:32.202Z,45.1
2018-06-15T04:32:32.218Z,45.01
2018-06-15T04:33:32.250Z,45.01
2018-06-15T04:34:32.261Z,44.7
2018-06-15T04:35:32.285Z,44.99
2018-06-15T04:36:32.312Z,45.08
2018-06-15T04:37:32.347Z,44.99
2018-06-15T04:38:32.346Z,44.99
2018-06-15T04:39:32.364Z,45.2
2018-06-15T04:40:32.387Z,45.28
2018-06-15T04:41:32.430Z,44.82
2018-06-15T04:42:32.456Z,45.29
2018-06-15T04:43:32.456Z,45.29
2018-06-15T04:44:32.488Z,45.2
2018-06-15T04:45:32.523Z,45.39
2018-06-15T04:46:32.520Z,45.2
2018-06-15T04:47:32.571Z,45.1
2018-06-15T04:48:32.564Z,45.29
2018-06-15T04:49:32.586Z,45.2
2018-06-15T04:50:32.662Z,45.29
2018-06-15T04:51:32.655Z,45.29
2018-06-15T04:52:32.660Z,45.2
2018-06-15T04:53:32.690Z,45.29
2018-06-15T04:54:32.696Z,44.91
2018-06-15T04:55:32.747Z,45.1
2018-06-15T04:56:32.762Z,45.01
2018-06-15T04:57:32.499Z,45.1
2018-06-15T04:58:32.797Z,45.01
2018-06-15T04:59:32.812Z,45.01
2018-06-15T05:00:32.835Z,45.01
2018-06-15T05:01:32.590Z,45.01
2018-06-15T05:02:32.870Z,45.1
2018-06-15T05:03:32.908Z,45.01
2018-06-15T05:04:32.652Z,44.91
2018-06-15T05:05:32.964Z,45.1
2018-06-15T05:06:32.978Z,44.91
2018-06-15T05:07:32.985Z,45.1
2018-06-15T05:08:33.023Z,44.93
2018-06-15T05:09:32.778Z,44.72
2018-06-15T05:10:33.066Z,44.91
2018-06-15T05:11:32.811Z,44.91
2018-06-15T05:12:33.123Z,44.91
2018-06-15T05:13:33.132Z,44.93
2018-06-15T05:14:33.160Z,44.72
2018-06-15T05:15:33.181Z,44.91
2018-06-15T05:16:33.206Z,44.84
2018-06-15T05:17:33.210Z,44.84
2018-06-15T05:18:33.236Z,44.93
2018-06-15T05:19:33.272Z,44.93
2018-06-15T05:20:33.307Z,45.03
2018-06-15T05:21:33.296Z,45.13
2018-06-15T05:22:33.347Z,44.93
2018-06-15T05:23:33.366Z,44.93
2018-06-15T05:24:33.374Z,44.93
2018-06-15T05:25:33.415Z,44.93
2018-06-15T05:26:33.413Z,44.84
2018-06-15T05:27:33.178Z,44.84
2018-06-15T05:28:33.447Z,44.93
2018-06-15T05:29:33.495Z,44.55
2018-06-15T05:30:33.517Z,44.84
2018-06-15T05:31:33.511Z,44.74
2018-06-15T05:32:33.565Z,44.74
2018-06-15T05:33:33.573Z,44.93
2018-06-15T05:34:33.600Z,44.84
2018-06-15T05:35:33.616Z,44.84
2018-06-15T05:36:33.644Z,44.96
2018-06-15T05:37:33.686Z,44.86
2018-06-15T05:38:33.685Z,44.96
2018-06-15T05:39:33.710Z,44.86
2018-06-15T05:40:33.450Z,44.96
2018-06-15T05:41:33.475Z,44.96
2018-06-15T05:42:33.863Z,44.96
2018-06-15T05:43:33.522Z,44.76
2018-06-15T05:44:33.570Z,44.76
2018-06-15T05:45:33.827Z,44.76
2018-06-15T05:46:33.599Z,44.86
2018-06-15T05:47:33.881Z,44.76
2018-06-15T05:48:33.917Z,44.96
2018-06-15T05:49:33.923Z,44.96
2018-06-15T05:50:33.947Z,44.86
2018-06-15T05:51:33.987Z,44.86
2018-06-15T05:52:33.722Z,44.57
2018-06-15T05:53:34.015Z,44.76
2018-06-15T05:54:34.057Z,44.67
2018-06-15T05:55:34.076Z,44.79
2018-06-15T05:56:34.084Z,44.79
2018-06-15T05:57:34.115Z,44.79
2018-06-15T05:58:34.129Z,44.89
2018-06-15T05:59:34.170Z,45.17
2018-06-15T06:00:33.914Z,45.07
2018-06-15T06:01:34.216Z,45.07
2018-06-15T06:02:34.217Z,45.07
2018-06-15T06:03:34.260Z,45.17
2018-06-15T06:04:34.284Z,44.89
2018-06-15T06:05:34.304Z,45.07
2018-06-15T06:06:34.328Z,44.98
2018-06-15T06:07:34.357Z,44.89
2018-06-15T06:08:34.359Z,44.81
2018-06-15T06:09:34.375Z,44.81
2018-06-15T06:10:34.417Z,44.69
2018-06-15T06:11:34.172Z,44.52
2018-06-15T06:12:34.187Z,44.62
2018-06-15T06:13:34.463Z,44.81
2018-06-15T06:14:34.496Z,44.62
2018-06-15T06:15:34.535Z,44.32
2018-06-15T06:16:34.557Z,44.62
2018-06-15T06:17:34.302Z,44.42
2018-06-15T06:18:34.605Z,44.52
2018-06-15T06:19:34.599Z,44.52
2018-06-15T06:20:34.650Z,44.71
2018-06-15T06:21:34.399Z,44.32
2018-06-15T06:22:34.681Z,44.32
2018-06-15T06:23:34.708Z,44.42
2018-06-15T06:24:34.734Z,44.45
2018-06-15T06:25:34.745Z,44.54
2018-06-15T06:26:34.766Z,44.25
2018-06-15T06:27:34.805Z,44.06
2018-06-15T06:28:34.811Z,44.25
2018-06-15T06:29:34.568Z,44.06
2018-06-15T06:30:34.596Z,43.87
2018-06-15T06:31:34.627Z,43.77
2018-06-15T06:32:35.032Z,43.67
2018-06-15T06:33:34.925Z,44.25
2018-06-15T06:34:34.974Z,44.35
2018-06-15T06:35:34.991Z,43.89
2018-06-15T06:36:35.006Z,43.7
2018-06-15T06:37:34.759Z,43.6
2018-06-15T06:38:35.053Z,43.5
2018-06-15T06:39:35.068Z,43.31
2018-06-15T06:40:34.832Z,43.89
2018-06-15T06:41:35.133Z,44.18
2018-06-15T06:42:35.135Z,44.08
2018-06-15T06:43:34.899Z,43.79
2018-06-15T06:44:35.194Z,43.6
2018-06-15T06:45:35.230Z,43.21
2018-06-15T06:46:35.227Z,43.5
2018-06-15T06:47:35.261Z,43.41
2018-06-15T06:48:35.277Z,43.43
2018-06-15T06:49:35.317Z,42.85
2018-06-15T06:50:35.379Z,42.75
2018-06-15T06:51:35.346Z,43.04
2018-06-15T06:52:35.364Z,42.85
2018-06-15T06:53:35.386Z,42.94
2018-06-15T06:54:35.408Z,43.14
2018-06-15T06:55:35.443Z,43.24
2018-06-15T06:56:35.468Z,43.24
2018-06-15T06:57:35.481Z,42.66
2018-06-15T06:58:35.588Z,42.66
2018-06-15T06:59:35.527Z,42.36
2018-06-15T07:00:35.559Z,42.56
2018-06-15T07:01:35.596Z,42.18
2018-06-15T07:02:35.608Z,42.29
2018-06-15T07:03:35.642Z,42
2018-06-15T07:04:35.667Z,41.52
2018-06-15T07:05:35.692Z,41.71
2018-06-15T07:06:35.719Z,41.61
2018-06-15T07:07:35.452Z,41.33
2018-06-15T07:08:35.758Z,41.33
2018-06-15T07:09:35.782Z,41.52
2018-06-15T07:10:35.813Z,41.23
2018-06-15T07:11:35.569Z,41.13
2018-06-15T07:12:35.858Z,41.03
2018-06-15T07:13:35.877Z,41.23
2018-06-15T07:14:35.882Z,41.05
2018-06-15T07:15:35.932Z,40.77
2018-06-15T07:16:35.946Z,40.57
2018-06-15T07:17:35.955Z,40.77
2018-06-15T07:18:35.987Z,40.67
2018-06-15T07:19:36.022Z,40.19
2018-06-15T07:20:36.033Z,40.38
2018-06-15T07:21:36.052Z,40.19
2018-06-15T07:22:36.081Z,40.67
2018-06-15T07:23:35.858Z,40.19
2018-06-15T07:24:36.126Z,40.2
2018-06-15T07:25:36.296Z,40.11
2018-06-15T07:26:36.203Z,39.7
2018-06-15T07:27:36.216Z,40.01
2018-06-15T07:28:36.238Z,40.11
2018-06-15T07:29:36.242Z,40.01
2018-06-15T07:30:36.009Z,39.92
2018-06-15T07:31:36.309Z,39.82
2018-06-15T07:32:36.338Z,39.92
2018-06-15T07:33:36.456Z,39.72
2018-06-15T07:34:36.375Z,39.92
2018-06-15T07:35:36.385Z,39.82
2018-06-15T07:36:36.255Z,39.72
2018-06-15T07:37:36.461Z,39.64
2018-06-15T07:38:36.493Z,39.74
2018-06-15T07:39:36.239Z,39.36
2018-06-15T07:40:36.512Z,39.36
2018-06-15T07:41:36.543Z,39.55
2018-06-15T07:42:36.579Z,39.26
2018-06-15T07:43:36.618Z,39.26
2018-06-15T07:44:36.404Z,39.36
2018-06-15T07:45:36.398Z,39.36
2018-06-15T07:46:36.684Z,39.16
2018-06-15T07:47:36.712Z,38.99
2018-06-15T07:48:36.742Z,38.97
2018-06-15T07:49:36.751Z,38.99
2018-06-15T07:50:36.766Z,38.79
2018-06-15T07:51:37.168Z,38.6
2018-06-15T07:52:36.556Z,38.79
2018-06-15T07:53:36.840Z,38.7
2018-06-15T07:54:36.859Z,38.79
2018-06-15T07:55:36.899Z,38.41
2018-06-15T07:56:36.662Z,38.7
2018-06-15T07:57:36.951Z,38.5
2018-06-15T07:58:36.971Z,38.6
2018-06-15T07:59:37.065Z,38.62
2018-06-15T08:00:37.207Z,38.53
2018-06-15T08:01:37.031Z,38.71
2018-06-15T08:02:37.068Z,38.43
2018-06-15T08:03:37.080Z,37.85
2018-06-15T08:04:36.837Z,38.43
2018-06-15T08:05:36.855Z,37.55
2018-06-15T08:06:37.158Z,37.94
2018-06-15T08:07:37.192Z,38.35
2018-06-15T08:08:36.932Z,38.06
2018-06-15T08:09:36.963Z,37.87
2018-06-15T08:10:37.253Z,37.77
2018-06-15T08:11:37.313Z,38.06
2018-06-15T08:12:37.303Z,37.77
2018-06-15T08:13:37.342Z,37.09
2018-06-15T08:14:37.354Z,37.48
2018-06-15T08:15:37.403Z,37.48
2018-06-15T08:16:37.421Z,37.21
2018-06-15T08:17:37.421Z,36.52
2018-06-15T08:18:37.464Z,37.01
2018-06-15T08:19:37.474Z,36.14
2018-06-15T08:20:37.241Z,36.82
2018-06-15T08:21:37.283Z,36.82
2018-06-15T08:22:37.575Z,36.91
2018-06-15T08:23:37.310Z,36.62
2018-06-15T08:24:37.599Z,36.62
2018-06-15T08:25:37.630Z,36.35
2018-06-15T08:26:37.656Z,36.44
2018-06-15T08:27:37.691Z,36.25
2018-06-15T08:28:37.722Z,36.35
2018-06-15T08:29:37.732Z,36.35
2018-06-15T08:30:37.773Z,36.25
2018-06-15T08:31:37.784Z,35.96
2018-06-15T08:32:37.813Z,35.86
2018-06-15T08:33:37.845Z,35.86
2018-06-15T08:34:37.864Z,35.77
2018-06-15T08:35:37.909Z,35.86
2018-06-15T08:36:37.919Z,35.77
2018-06-15T08:37:37.954Z,35.86
2018-06-15T08:38:37.973Z,35.77
2018-06-15T08:39:38.000Z,35.86
2018-06-15T08:40:38.011Z,35.86
2018-06-15T08:41:37.776Z,36.16
2018-06-15T08:42:38.072Z,35.86
2018-06-15T08:43:37.834Z,35.77
2018-06-15T08:44:38.123Z,35.48
2018-06-15T08:45:38.162Z,35.57
2018-06-15T08:46:38.171Z,35.67
2018-06-15T08:47:38.209Z,35.57
2018-06-15T08:48:38.230Z,35.67
2018-06-15T08:49:38.248Z,35.67
2018-06-15T08:50:38.271Z,35.09
2018-06-15T08:51:38.292Z,35.38
2018-06-15T08:52:38.336Z,35.57
2018-06-15T08:53:38.357Z,35.48
2018-06-15T08:54:38.383Z,35.38
2018-06-15T08:55:38.412Z,35.48
2018-06-15T08:56:38.435Z,35.57
2018-06-15T08:57:38.183Z,35.28
2018-06-15T08:58:38.471Z,35.28
2018-06-15T08:59:38.501Z,35.38
2018-06-15T09:00:38.561Z,35.19
2018-06-15T09:01:38.571Z,35.28
2018-06-15T09:02:38.576Z,35.19
2018-06-15T09:03:38.332Z,35.19
2018-06-15T09:04:38.645Z,35.21
2018-06-15T09:05:38.658Z,35.11
2018-06-15T09:06:38.697Z,34.72
2018-06-15T09:07:38.722Z,34.91
2018-06-15T09:08:38.749Z,35.11
2018-06-15T09:09:38.776Z,34.72
2018-06-15T09:10:38.799Z,34.33
2018-06-15T09:11:38.830Z,34.62
2018-06-15T09:12:38.575Z,34.14
2018-06-15T09:13:38.861Z,34.43
2018-06-15T09:14:38.905Z,34.62
2018-06-15T09:15:38.984Z,34.81
2018-06-15T09:16:38.959Z,34.62
2018-06-15T09:17:38.973Z,33.76
2018-06-15T09:18:39.005Z,34.16
2018-06-15T09:19:38.768Z,34.14
2018-06-15T09:20:39.065Z,34.25
2018-06-15T09:21:39.078Z,34.35
2018-06-15T09:22:38.839Z,34.35
2018-06-15T09:23:39.126Z,33.96
2018-06-15T09:24:38.900Z,34.16
2018-06-15T09:25:39.197Z,33.96
2018-06-15T09:26:39.226Z,34.06
2018-06-15T09:27:39.249Z,33.96
2018-06-15T09:28:38.993Z,33.86
2018-06-15T09:29:39.296Z,33.67
2018-06-15T09:30:39.336Z,33.67
2018-06-15T09:31:39.343Z,33.38
2018-06-15T09:32:39.511Z,33.47
2018-06-15T09:33:39.395Z,33.69
2018-06-15T09:34:39.446Z,33.49
2018-06-15T09:35:39.185Z,33.29
2018-06-15T09:36:39.511Z,33.2
2018-06-15T09:37:39.498Z,33.29
2018-06-15T09:38:39.523Z,33.01
2018-06-15T09:39:39.294Z,33.11
2018-06-15T09:40:39.595Z,33.49
2018-06-15T09:41:39.340Z,33.01
2018-06-15T09:42:39.651Z,33.01
2018-06-15T09:43:39.670Z,33.01
2018-06-15T09:44:39.693Z,33.2
2018-06-15T09:45:39.703Z,32.62
2018-06-15T09:46:39.986Z,32.44
2018-06-15T09:47:39.494Z,32.62
2018-06-15T09:48:39.801Z,32.82
2018-06-15T09:49:39.549Z,32.44
2018-06-15T09:50:39.579Z,32.34
2018-06-15T09:51:39.612Z,32.54
2018-06-15T09:52:39.917Z,32.54
2018-06-15T09:53:39.927Z,32.24
2018-06-15T09:54:39.945Z,32.54
2018-06-15T09:55:40.001Z,32.24
2018-06-15T09:56:40.008Z,32.24
2018-06-15T09:57:40.050Z,32.05
2018-06-15T09:58:40.077Z,31.95
2018-06-15T09:59:40.082Z,32.24
2018-06-15T10:00:39.980Z,32.17
2018-06-15T10:01:39.878Z,32.17
2018-06-15T10:02:40.179Z,32.07
2018-06-15T10:03:40.204Z,32.26
2018-06-15T10:04:40.233Z,32.26
2018-06-15T10:05:40.246Z,31.97
2018-06-15T10:06:40.284Z,31.77
2018-06-15T10:07:40.315Z,31.38
2018-06-15T10:08:40.324Z,31.68
2018-06-15T10:09:40.381Z,31.38
2018-06-15T10:10:40.377Z,31.38
2018-06-15T10:11:40.469Z,31.58
2018-06-15T10:12:40.448Z,31.58
2018-06-15T10:13:40.469Z,31.68
2018-06-15T10:14:40.220Z,31.7
2018-06-15T10:15:40.516Z,31.58
2018-06-15T10:16:40.608Z,31.7
2018-06-15T10:17:40.575Z,31.6
2018-06-15T10:18:40.334Z,31.6
2018-06-15T10:19:40.624Z,31.6
2018-06-15T10:20:40.669Z,31.6
2018-06-15T10:21:40.422Z,31.4
2018-06-15T10:22:40.702Z,31.4
2018-06-15T10:23:40.464Z,31.21
2018-06-15T10:24:40.777Z,31.51
2018-06-15T10:25:40.788Z,31.22
2018-06-15T10:26:40.835Z,31.13
2018-06-15T10:27:40.855Z,31.13
2018-06-15T10:28:40.884Z,30.82
2018-06-15T10:29:40.925Z,31.13
2018-06-15T10:30:40.671Z,31.03
2018-06-15T10:31:40.966Z,31.03
2018-06-15T10:32:40.983Z,31.03
2018-06-15T10:33:40.749Z,30.46
2018-06-15T10:34:41.057Z,30.83
2018-06-15T10:35:41.072Z,30.74
2018-06-15T10:36:41.092Z,30.75
2018-06-15T10:37:41.135Z,30.85
2018-06-15T10:38:41.159Z,30.46
2018-06-15T10:39:41.360Z,30.46
2018-06-15T10:40:41.216Z,30.55
2018-06-15T10:41:40.960Z,30.55
2018-06-15T10:42:41.270Z,30.26
2018-06-15T10:43:41.275Z,30.46
2018-06-15T10:44:41.061Z,30.38
2018-06-15T10:45:41.420Z,30.47
2018-06-15T10:46:41.386Z,30.28
2018-06-15T10:47:41.412Z,30.08
2018-06-15T10:48:41.441Z,29.99
2018-06-15T10:49:41.466Z,30.18
2018-06-15T10:50:41.488Z,29.6
2018-06-15T10:51:41.240Z,29.79
2018-06-15T10:52:41.564Z,29.89
2018-06-15T10:53:41.575Z,29.81
2018-06-15T10:54:41.334Z,29.91
2018-06-15T10:55:41.361Z,29.71
2018-06-15T10:56:41.668Z,29.32
2018-06-15T10:57:41.693Z,29.42
2018-06-15T10:58:41.708Z,29.52
2018-06-15T10:59:41.738Z,29.53
2018-06-15T11:00:41.754Z,29.14
2018-06-15T11:01:41.805Z,29.24
2018-06-15T11:02:41.555Z,29.14
2018-06-15T11:03:41.616Z,29.04
2018-06-15T11:04:41.603Z,29.14
2018-06-15T11:05:41.639Z,29.04
2018-06-15T11:06:41.950Z,28.65
2018-06-15T11:07:41.953Z,28.67
2018-06-15T11:08:41.727Z,28.57
2018-06-15T11:09:42.026Z,28.57
2018-06-15T11:10:41.780Z,29.15
2018-06-15T11:11:42.072Z,28.96
2018-06-15T11:12:41.837Z,29.15
2018-06-15T11:13:42.130Z,28.86
2018-06-15T11:14:42.166Z,28.58
2018-06-15T11:15:42.197Z,28.19
2018-06-15T11:16:42.212Z,28.39
2018-06-15T11:17:42.296Z,28.19
2018-06-15T11:18:42.270Z,28
2018-06-15T11:19:42.289Z,28.09
2018-06-15T11:20:42.340Z,28.09
2018-06-15T11:21:42.354Z,27.81
2018-06-15T11:22:42.400Z,27.91
2018-06-15T11:23:42.414Z,27.7
2018-06-15T11:24:42.461Z,27.52
2018-06-15T11:25:42.208Z,27.81
2018-06-15T11:26:42.495Z,27.03
2018-06-15T11:27:42.535Z,27.52
2018-06-15T11:28:42.570Z,27.42
2018-06-15T11:29:42.591Z,27.52
2018-06-15T11:30:42.606Z,27.42
2018-06-15T11:31:42.638Z,27.23
2018-06-15T11:32:42.694Z,27.42
2018-06-15T11:33:42.694Z,27.33
2018-06-15T11:34:42.757Z,27.23
2018-06-15T11:35:42.772Z,27.23
2018-06-15T11:36:42.788Z,26.93
2018-06-15T11:37:42.815Z,27.23
2018-06-15T11:38:42.848Z,27.33
2018-06-15T11:39:42.877Z,26.84
2018-06-15T11:40:42.643Z,26.54
2018-06-15T11:41:42.664Z,26.74
2018-06-15T11:42:42.689Z,26.74
2018-06-15T11:43:42.991Z,26.54
2018-06-15T11:44:43.037Z,26.54
2018-06-15T11:45:43.052Z,26.45
2018-06-15T11:46:42.818Z,26.74
2018-06-15T11:47:43.105Z,26.74
2018-06-15T11:48:43.149Z,26.76
2018-06-15T11:49:42.912Z,26.64
2018-06-15T11:50:43.212Z,26.54
2018-06-15T11:51:43.236Z,26.25
2018-06-15T11:52:43.277Z,26.54
2018-06-15T11:53:43.027Z,26.27
2018-06-15T11:54:43.317Z,26.35
2018-06-15T11:55:43.352Z,26.06
2018-06-15T11:56:43.104Z,25.96
2018-06-15T11:57:43.419Z,26.06
2018-06-15T11:58:43.450Z,25.67
2018-06-15T11:59:43.477Z,26.06
2018-06-15T12:00:43.505Z,25.86
2018-06-15T12:01:43.269Z,25.67
2018-06-15T12:02:43.549Z,25.96
2018-06-15T12:03:43.593Z,26.06
2018-06-15T12:04:43.353Z,25.96
2018-06-15T12:05:43.643Z,25.96
2018-06-15T12:06:43.669Z,25.67
2018-06-15T12:07:43.719Z,25.95
2018-06-15T12:08:43.723Z,26.24
2018-06-15T12:09:43.759Z,26.14
2018-06-15T12:10:43.808Z,26.43
2018-06-15T12:11:43.828Z,26.43
2018-06-15T12:12:43.924Z,26.43
2018-06-15T12:13:43.604Z,26.24
2018-06-15T12:14:43.918Z,26.63
2018-06-15T12:15:43.949Z,26.63
2018-06-15T12:16:43.970Z,26.62
2018-06-15T12:17:43.741Z,26.81
2018-06-15T12:18:43.746Z,26.52
2018-06-15T12:19:44.055Z,26.72
2018-06-15T12:20:43.809Z,26.72
2018-06-15T12:21:44.135Z,26.62
2018-06-15T12:22:44.150Z,26.42
2018-06-15T12:23:44.177Z,26.72
2018-06-15T12:24:44.208Z,26.61
2018-06-15T12:25:44.226Z,26.51
2018-06-15T12:26:44.263Z,26.41
2018-06-15T12:27:44.018Z,27.09
2018-06-15T12:28:44.315Z,27
2018-06-15T12:29:44.339Z,27
2018-06-15T12:30:44.363Z,27.19
2018-06-15T12:31:44.145Z,27.09
2018-06-15T12:32:44.472Z,27.29
2018-06-15T12:33:44.460Z,27
2018-06-15T12:34:44.485Z,27.29
2018-06-15T12:35:44.517Z,27.37
2018-06-15T12:36:44.539Z,27.37
2018-06-15T12:37:44.586Z,27.28
2018-06-15T12:38:44.346Z,27.28
2018-06-15T12:39:44.628Z,27.08
2018-06-15T12:40:44.678Z,27.08
2018-06-15T12:41:44.695Z,27.37
2018-06-15T12:42:44.736Z,27.76
2018-06-15T12:43:44.485Z,27.37
2018-06-15T12:44:44.783Z,27.65
2018-06-15T12:45:44.907Z,27.75
2018-06-15T12:46:44.853Z,27.65
2018-06-15T12:47:44.868Z,27.75
2018-06-15T12:48:44.890Z,28.04
2018-06-15T12:49:44.915Z,27.84
2018-06-15T12:50:44.956Z,27.84
2018-06-15T12:51:44.970Z,27.65
2018-06-15T12:52:45.023Z,28.04
2018-06-15T12:53:45.047Z,28.14
2018-06-15T12:54:44.792Z,28.14
2018-06-15T12:55:44.831Z,28.13
2018-06-15T12:56:45.163Z,28.13
2018-06-15T12:57:45.163Z,28.32